createdAt,value
2022-10-13T00:04:52.206Z,14.70
2022-10-13T00:09:57.442Z,14.48
2022-10-13T00:15:01.338Z,14.90
2022-10-13T00:20:05.720Z,15.30
2022-10-13T00:25:11.171Z,16.33
2022-10-13T00:30:15.072Z,17.03
2022-10-13T00:35:18.849Z,15.60
2022-10-13T00:40:24.210Z,14.35
2022-10-13T00:45:29.690Z,15.93
2022-10-13T00:50:37.660Z,15.30
2022-10-13T00:55:44.633Z,13.98
2022-10-13T01:00:50.556Z,14.30
2022-10-13T01:05:58.495Z,13.98
2022-10-13T01:11:25.106Z,13.20
2022-10-13T01:21:36.267Z,13.20
2022-10-13T01:27:05.565Z,12.55
2022-10-13T01:32:13.995Z,13.95
2022-10-13T01:37:22.273Z,13.45
2022-10-13T01:42:31.789Z,14.18
2022-10-13T01:47:37.326Z,14.43
2022-10-13T01:52:41.206Z,13.60
2022-10-13T01:57:46.486Z,14.35
2022-10-13T02:03:01.704Z,15.23
2022-10-13T02:08:10.428Z,16.23
2022-10-13T02:13:16.133Z,15.88
2022-10-13T02:18:25.181Z,15.55
2022-10-13T02:23:29.780Z,14.85
2022-10-13T02:28:33.673Z,14.52
2022-10-13T02:33:38.906Z,16.35
2022-10-13T02:38:42.791Z,15.30
2022-10-13T02:43:47.948Z,16.15
2022-10-13T02:48:53.463Z,16.95
2022-10-13T02:53:57.255Z,16.67
2022-10-13T02:59:01.207Z,17.90
2022-10-13T03:04:06.419Z,17.80
2022-10-13T03:09:10.351Z,16.52
2022-10-13T03:14:14.216Z,17.80
2022-10-13T03:19:19.706Z,20.90
2022-10-13T03:24:23.544Z,16.37
2022-10-13T03:29:27.337Z,17.45
2022-10-13T03:34:32.704Z,18.25
2022-10-13T03:39:36.675Z,13.33
2022-10-13T03:44:40.620Z,17.90
2022-10-13T03:49:45.875Z,18.25
2022-10-13T03:54:49.869Z,17.90
2022-10-13T03:59:56.091Z,18.00
2022-10-13T04:05:05.487Z,18.33
2022-10-13T04:10:11.548Z,18.27
2022-10-13T04:15:17.263Z,17.63
2022-10-13T04:20:22.548Z,18.77
2022-10-13T04:25:26.355Z,17.70
2022-10-13T04:30:30.474Z,17.67
2022-10-13T04:35:35.846Z,18.75
2022-10-13T04:40:41.924Z,18.88
2022-10-13T04:45:45.720Z,19.10
2022-10-13T04:50:59.969Z,19.20
2022-10-13T04:56:04.845Z,18.10
2022-10-13T05:01:10.143Z,18.65
2022-10-13T05:06:19.201Z,18.33
2022-10-13T05:11:25.662Z,18.45
2022-10-13T05:16:31.021Z,16.63
2022-10-13T05:21:36.218Z,17.63
2022-10-13T05:26:40.185Z,15.32
2022-10-13T05:31:44.050Z,16.42
2022-10-13T05:36:49.253Z,17.08
2022-10-13T05:41:53.076Z,16.70
2022-10-13T05:47:02.605Z,17.85
2022-10-13T05:52:11.876Z,15.52
2022-10-13T05:57:17.258Z,15.93
2022-10-13T06:02:22.787Z,16.63
2022-10-13T06:07:28.262Z,17.40
2022-10-13T06:12:32.076Z,11.48
2022-10-13T06:17:38.063Z,13.95
2022-10-13T06:22:43.313Z,14.48
2022-10-13T06:27:47.162Z,15.47
2022-10-13T06:32:51.029Z,14.25
2022-10-13T06:37:56.271Z,13.10
2022-10-13T06:43:00.221Z,12.70
2022-10-13T06:48:04.115Z,13.43
2022-10-13T06:53:09.386Z,13.32
2022-10-13T06:58:13.213Z,13.27
2022-10-13T07:03:16.980Z,13.57
2022-10-13T07:08:22.515Z,13.95
2022-10-13T07:13:26.362Z,14.75
2022-10-13T07:18:30.206Z,14.32
2022-10-13T07:23:35.514Z,15.15
2022-10-13T07:28:39.582Z,14.13
2022-10-13T07:33:44.558Z,13.80
2022-10-13T07:38:49.771Z,14.13
2022-10-13T07:43:56.031Z,13.27
2022-10-13T07:48:59.803Z,12.20
2022-10-13T07:54:05.194Z,12.82
2022-10-13T07:59:10.210Z,13.20
2022-10-13T08:04:14.172Z,11.13
2022-10-13T08:09:19.387Z,11.85
2022-10-13T08:14:23.186Z,12.07
2022-10-13T08:19:28.450Z,11.68
2022-10-13T08:24:33.980Z,11.13
2022-10-13T08:29:37.802Z,10.98
2022-10-13T08:34:41.602Z,11.10
2022-10-13T08:39:47.359Z,10.27
2022-10-13T08:50:20.159Z,9.18
2022-10-13T08:55:31.861Z,9.23
2022-10-13T09:00:35.721Z,9.25
2022-10-13T09:05:46.005Z,8.38
2022-10-13T09:10:52.378Z,7.95
2022-10-13T09:15:59.350Z,8.35
2022-10-13T09:21:17.600Z,7.57
2022-10-13T09:26:25.323Z,7.43
2022-10-13T09:31:30.619Z,8.23
2022-10-13T09:36:34.594Z,8.30
2022-10-13T09:41:41.036Z,7.30
2022-10-13T09:46:50.451Z,7.50
2022-10-13T09:52:00.999Z,8.20
2022-10-13T09:57:13.013Z,7.28
2022-10-13T10:02:29.910Z,6.03
2022-10-13T10:07:34.473Z,6.72
2022-10-13T10:12:42.284Z,7.50
2022-10-13T10:17:53.290Z,6.03
2022-10-13T10:23:01.355Z,6.60
2022-10-13T10:28:33.406Z,6.80
2022-10-13T10:33:44.676Z,6.18
2022-10-13T10:38:52.771Z,6.13
2022-10-13T10:43:59.876Z,5.20
2022-10-13T10:49:12.560Z,5.22
2022-10-13T10:54:27.472Z,5.78
2022-10-13T10:59:43.850Z,5.50
2022-10-13T11:04:48.886Z,5.40
2022-10-13T11:15:27.462Z,5.63
2022-10-13T11:20:49.562Z,4.53
2022-10-13T11:25:53.355Z,5.32
2022-10-13T11:30:59.328Z,5.05
2022-10-13T11:36:47.988Z,4.85
2022-10-13T11:41:56.604Z,4.72
2022-10-13T11:47:09.430Z,4.45
2022-10-13T11:52:29.022Z,4.25
2022-10-13T11:57:33.960Z,4.90
2022-10-13T12:02:49.820Z,4.10
2022-10-13T12:08:02.531Z,4.28
2022-10-13T12:13:06.950Z,4.05
2022-10-13T12:18:24.704Z,3.60
2022-10-13T12:23:31.090Z,5.07
2022-10-13T12:28:51.367Z,4.13
2022-10-13T12:33:57.984Z,4.20
2022-10-13T12:39:05.986Z,4.32
2022-10-13T12:44:14.393Z,4.00
2022-10-13T12:49:24.117Z,3.50
2022-10-13T12:54:30.322Z,3.70
2022-10-13T12:59:34.848Z,4.07
2022-10-13T13:04:45.000Z,3.38
2022-10-13T13:10:01.340Z,3.83
2022-10-13T13:15:29.670Z,3.83
2022-10-13T13:20:37.951Z,4.55
2022-10-13T13:25:41.802Z,4.05
2022-10-13T13:30:45.851Z,4.57
2022-10-13T13:35:51.039Z,5.20
2022-10-13T13:40:54.856Z,8.88
2022-10-13T13:45:58.992Z,5.65
2022-10-13T13:51:04.211Z,5.00
2022-10-13T13:56:12.084Z,4.25
2022-10-13T14:01:16.264Z,4.40
2022-10-13T14:06:22.846Z,4.45
2022-10-13T14:11:26.779Z,4.53
2022-10-13T14:16:30.592Z,5.32
2022-10-13T14:21:36.478Z,5.07
2022-10-13T14:26:47.111Z,5.05
2022-10-13T14:31:50.948Z,6.45
2022-10-13T14:36:56.227Z,5.55
2022-10-13T14:42:00.015Z,5.63
2022-10-13T14:47:03.859Z,5.47
2022-10-13T14:52:09.989Z,5.43
2022-10-13T14:57:16.138Z,6.22
2022-10-13T15:02:20.050Z,5.90
2022-10-13T15:07:31.798Z,6.50
2022-10-13T15:12:35.925Z,6.67
2022-10-13T15:17:39.792Z,6.78
2022-10-13T15:22:44.955Z,6.30
2022-10-13T15:27:49.598Z,7.25
2022-10-13T15:32:53.731Z,8.60
2022-10-13T15:37:58.966Z,8.00
2022-10-13T15:43:02.955Z,8.70
2022-10-13T15:48:10.047Z,8.27
2022-10-13T15:53:15.265Z,7.10
2022-10-13T15:58:19.379Z,8.83
2022-10-13T16:03:24.219Z,8.00
2022-10-13T16:08:29.484Z,7.88
2022-10-13T16:13:33.691Z,8.63
2022-10-13T16:18:39.204Z,8.52
2022-10-13T16:23:44.379Z,11.48
2022-10-13T16:28:48.472Z,9.33
2022-10-13T16:33:52.418Z,9.20
2022-10-13T16:38:57.674Z,9.18
2022-10-13T16:44:01.469Z,9.10
2022-10-13T16:49:05.383Z,10.85
2022-10-13T16:54:10.988Z,9.30
2022-10-13T16:59:14.811Z,9.05
2022-10-13T17:04:22.169Z,8.68
2022-10-13T17:09:27.934Z,8.82
2022-10-13T17:14:32.039Z,9.88
2022-10-13T17:19:36.002Z,9.93
2022-10-13T17:24:47.750Z,13.50
2022-10-13T17:29:53.915Z,18.40
2022-10-13T17:34:57.934Z,17.10
2022-10-13T17:40:03.222Z,19.63
2022-10-13T17:45:07.911Z,20.83
2022-10-13T17:50:11.770Z,20.90
2022-10-13T17:55:17.067Z,21.83
2022-10-13T18:00:20.979Z,21.30
2022-10-13T18:05:26.244Z,19.43
2022-10-13T18:10:45.610Z,15.60
2022-10-13T18:15:55.191Z,13.32
2022-10-13T18:20:59.131Z,12.98
2022-10-13T18:26:06.369Z,12.60
2022-10-13T18:31:12.334Z,13.00
2022-10-13T18:36:19.863Z,14.50
2022-10-13T18:41:25.780Z,13.68
2022-10-13T18:46:29.619Z,11.75
2022-10-13T18:51:36.219Z,12.90
2022-10-13T18:56:41.803Z,12.90
2022-10-13T19:01:45.820Z,14.43
2022-10-13T19:06:49.921Z,15.68
2022-10-13T19:11:56.379Z,13.00
2022-10-13T19:17:02.357Z,12.52
2022-10-13T19:22:07.867Z,11.73
2022-10-13T19:27:13.086Z,12.27
2022-10-13T19:32:16.925Z,11.50
2022-10-13T19:37:20.846Z,12.93
2022-10-13T19:42:26.495Z,13.15
2022-10-13T19:47:30.393Z,12.67
2022-10-13T19:52:34.418Z,12.30
2022-10-13T19:57:39.753Z,12.30
2022-10-13T20:02:43.631Z,12.23
2022-10-13T20:07:47.725Z,11.63
2022-10-13T20:12:53.090Z,12.13
2022-10-13T20:17:56.912Z,12.67
2022-10-13T20:23:01.711Z,11.93
2022-10-13T20:28:07.358Z,12.50
2022-10-13T20:33:11.180Z,12.77
2022-10-13T20:38:15.139Z,12.73
2022-10-13T20:43:25.517Z,12.85
2022-10-13T20:48:51.032Z,11.98
2022-10-13T20:53:56.458Z,13.35
2022-10-13T20:59:04.998Z,12.65
2022-10-13T21:04:08.816Z,12.55
2022-10-13T21:09:12.807Z,13.20
2022-10-13T21:19:23.650Z,12.93
2022-10-13T21:24:27.508Z,12.68
2022-10-13T21:29:32.817Z,12.43
2022-10-13T21:34:36.821Z,12.40
2022-10-13T21:39:40.696Z,12.07
2022-10-13T21:44:45.864Z,11.50
2022-10-13T21:49:49.680Z,13.13
2022-10-13T21:54:54.182Z,11.55
2022-10-13T21:59:59.392Z,12.15
2022-10-13T22:05:03.278Z,12.10
2022-10-13T22:10:07.344Z,12.13
2022-10-13T22:15:12.845Z,12.00
2022-10-13T22:20:16.708Z,12.33
2022-10-13T22:25:21.458Z,11.52
2022-10-13T22:30:26.642Z,11.40
2022-10-13T22:35:30.404Z,11.13
2022-10-13T22:40:34.282Z,11.23
2022-10-13T22:45:39.516Z,11.70
2022-10-13T22:50:43.317Z,11.50
2022-10-13T22:55:47.019Z,11.63
2022-10-13T23:00:52.205Z,12.65
2022-10-13T23:05:55.971Z,11.48
2022-10-13T23:10:59.842Z,11.95
2022-10-13T23:16:05.956Z,11.73
2022-10-13T23:21:15.878Z,12.52
2022-10-13T23:26:19.647Z,12.07
2022-10-13T23:31:25.244Z,11.98
2022-10-13T23:36:30.771Z,11.40
2022-10-13T23:41:35.591Z,11.98
2022-10-13T23:46:40.783Z,11.48
2022-10-13T23:51:47.238Z,11.80
2022-10-13T23:56:51.079Z,12.13
